sensor_id;sensor_type;location;lat;lon;timestamp;pressure;altitude;pressure_sealevel;temperature;humidity
54262;BME280;40174;52.364;6.452;2023-07-30T00:00:54;100622.69;;;16.06;100.00
54262;BME280;40174;52.364;6.452;2023-07-30T00:03:21;100619.84;;;16.07;100.00
54262;BME280;40174;52.364;6.452;2023-07-30T00:05:54;100608.69;;;16.04;100.00
54262;BME280;40174;52.364;6.452;2023-07-30T00:08:21;100613.00;;;16.05;100.00
54262;BME280;40174;52.364;6.452;2023-07-30T00:10:47;100609.19;;;15.99;100.00
54262;BME280;40174;52.364;6.452;2023-07-30T00:13:14;100607.69;;;15.96;100.00
54262;BME280;40174;52.364;6.452;2023-07-30T00:15:42;100609.19;;;15.99;100.00
54262;BME280;40174;52.364;6.452;2023-07-30T00:18:09;100607.34;;;15.99;100.00
54262;BME280;40174;52.364;6.452;2023-07-30T00:20:35;100613.66;;;15.98;100.00
54262;BME280;40174;52.364;6.452;2023-07-30T00:23:02;100609.16;;;15.91;100.00
54262;BME280;40174;52.364;6.452;2023-07-30T00:25:29;100612.16;;;15.96;100.00
54262;BME280;40174;52.364;6.452;2023-07-30T00:27:55;100618.34;;;15.96;100.00
54262;BME280;40174;52.364;6.452;2023-07-30T00:30:22;100615.31;;;15.91;100.00
54262;BME280;40174;52.364;6.452;2023-07-30T00:32:50;100606.81;;;15.79;100.00
54262;BME280;40174;52.364;6.452;2023-07-30T00:35:17;100604.97;;;15.72;100.00
54262;BME280;40174;52.364;6.452;2023-07-30T00:37:43;100606.06;;;15.69;100.00
54262;BME280;40174;52.364;6.452;2023-07-30T00:40:11;100607.56;;;15.64;100.00
54262;BME280;40174;52.364;6.452;2023-07-30T00:42:38;100604.38;;;15.60;100.00
54262;BME280;40174;52.364;6.452;2023-07-30T00:45:05;100610.84;;;15.57;100.00
54262;BME280;40174;52.364;6.452;2023-07-30T00:47:32;100611.03;;;15.56;100.00
54262;BME280;40174;52.364;6.452;2023-07-30T00:50:01;100616.66;;;15.53;100.00
54262;BME280;40174;52.364;6.452;2023-07-30T00:52:28;100609.69;;;15.52;100.00
54262;BME280;40174;52.364;6.452;2023-07-30T00:54:56;100619.00;;;15.48;100.00
54262;BME280;40174;52.364;6.452;2023-07-30T00:57:24;100619.28;;;15.45;100.00
54262;BME280;40174;52.364;6.452;2023-07-30T00:59:52;100624.94;;;15.42;100.00
54262;BME280;40174;52.364;6.452;2023-07-30T01:02:19;100623.63;;;15.46;100.00
54262;BME280;40174;52.364;6.452;2023-07-30T01:04:47;100617.97;;;15.41;100.00
54262;BME280;40174;52.364;6.452;2023-07-30T01:07:15;100621.78;;;15.38;100.00
54262;BME280;40174;52.364;6.452;2023-07-30T01:09:42;100621.09;;;15.36;100.00
54262;BME280;40174;52.364;6.452;2023-07-30T01:12:09;100618.59;;;15.34;100.00
54262;BME280;40174;52.364;6.452;2023-07-30T01:14:36;100623.78;;;15.36;100.00
54262;BME280;40174;52.364;6.452;2023-07-30T01:17:04;100621.59;;;15.31;100.00
54262;BME280;40174;52.364;6.452;2023-07-30T01:19:31;100622.72;;;15.29;100.00
54262;BME280;40174;52.364;6.452;2023-07-30T01:21:59;100620.22;;;15.27;100.00
54262;BME280;40174;52.364;6.452;2023-07-30T01:24:26;100628.22;;;15.27;100.00
54262;BME280;40174;52.364;6.452;2023-07-30T01:26:56;100620.44;;;15.34;100.00
54262;BME280;40174;52.364;6.452;2023-07-30T01:29:27;100622.34;;;15.24;100.00
54262;BME280;40174;52.364;6.452;2023-07-30T01:32:02;100619.50;;;15.17;100.00
54262;BME280;40174;52.364;6.452;2023-07-30T01:34:34;100618.81;;;15.15;100.00
54262;BME280;40174;52.364;6.452;2023-07-30T01:41:06;100618.94;;;15.05;100.00
54262;BME280;40174;52.364;6.452;2023-07-30T01:43:33;100616.28;;;15.05;100.00
54262;BME280;40174;52.364;6.452;2023-07-30T01:45:59;100616.13;;;15.07;100.00
54262;BME280;40174;52.364;6.452;2023-07-30T01:48:26;100629.25;;;15.08;100.00
54262;BME280;40174;52.364;6.452;2023-07-30T01:50:53;100626.59;;;15.08;100.00
54262;BME280;40174;52.364;6.452;2023-07-30T01:53:20;100629.59;;;15.05;100.00
54262;BME280;40174;52.364;6.452;2023-07-30T01:55:46;100629.91;;;15.02;100.00
54262;BME280;40174;52.364;6.452;2023-07-30T01:58:15;100634.91;;;15.05;100.00
54262;BME280;40174;52.364;6.452;2023-07-30T02:00:41;100635.22;;;15.02;100.00
54262;BME280;40174;52.364;6.452;2023-07-30T02:03:08;100627.41;;;15.01;100.00
54262;BME280;40174;52.364;6.452;2023-07-30T02:05:35;100634.22;;;15.03;100.00
54262;BME280;40174;52.364;6.452;2023-07-30T02:08:01;100635.88;;;15.04;100.00
54262;BME280;40174;52.364;6.452;2023-07-30T02:10:30;100638.03;;;15.01;100.00
54262;BME280;40174;52.364;6.452;2023-07-30T02:12:56;100634.16;;;14.95;100.00
54262;BME280;40174;52.364;6.452;2023-07-30T02:15:24;100635.16;;;14.94;100.00
54262;BME280;40174;52.364;6.452;2023-07-30T02:17:51;100629.50;;;14.89;100.00
54262;BME280;40174;52.364;6.452;2023-07-30T02:20:18;100627.31;;;14.84;100.00
54262;BME280;40174;52.364;6.452;2023-07-30T02:22:45;100626.44;;;14.84;100.00
54262;BME280;40174;52.364;6.452;2023-07-30T02:25:12;100632.75;;;14.83;100.00
54262;BME280;40174;52.364;6.452;2023-07-30T02:27:38;100633.44;;;14.85;100.00
54262;BME280;40174;52.364;6.452;2023-07-30T02:30:06;100625.94;;;14.80;100.00
54262;BME280;40174;52.364;6.452;2023-07-30T02:32:34;100632.44;;;14.86;100.00
54262;BME280;40174;52.364;6.452;2023-07-30T02:35:01;100632.22;;;14.79;100.00
54262;BME280;40174;52.364;6.452;2023-07-30T02:37:28;100631.41;;;14.79;100.00
54262;BME280;40174;52.364;6.452;2023-07-30T02:39:54;100629.88;;;14.76;100.00
54262;BME280;40174;52.364;6.452;2023-07-30T02:42:21;100635.34;;;14.74;100.00
54262;BME280;40174;52.364;6.452;2023-07-30T02:44:48;100626.06;;;14.79;100.00
54262;BME280;40174;52.364;6.452;2023-07-30T02:47:14;100623.88;;;14.74;100.00
54262;BME280;40174;52.364;6.452;2023-07-30T02:49:42;100626.69;;;14.72;100.00
54262;BME280;40174;52.364;6.452;2023-07-30T02:52:09;100629.53;;;14.71;100.00
54262;BME280;40174;52.364;6.452;2023-07-30T02:54:36;100631.03;;;14.73;100.00
54262;BME280;40174;52.364;6.452;2023-07-30T02:57:03;100624.03;;;14.72;100.00
54262;BME280;40174;52.364;6.452;2023-07-30T02:59:30;100633.38;;;14.76;100.00
54262;BME280;40174;52.364;6.452;2023-07-30T03:01:56;100631.41;;;14.79;100.00
54262;BME280;40174;52.364;6.452;2023-07-30T03:04:23;100629.22;;;14.74;100.00
54262;BME280;40174;52.364;6.452;2023-07-30T03:06:51;100622.38;;;14.71;100.00
54262;BME280;40174;52.364;6.452;2023-07-30T03:09:18;100634.00;;;14.70;100.00
54262;BME280;40174;52.364;6.452;2023-07-30T03:11:44;100628.16;;;14.67;100.00
54262;BME280;40174;52.364;6.452;2023-07-30T03:14:11;100629.81;;;14.68;100.00
54262;BME280;40174;52.364;6.452;2023-07-30T03:16:38;100630.13;;;14.65;100.00
54262;BME280;40174;52.364;6.452;2023-07-30T03:19:04;100638.13;;;14.65;100.00
54262;BME280;40174;52.364;6.452;2023-07-30T03:21:31;100630.13;;;14.65;100.00
54262;BME280;40174;52.364;6.452;2023-07-30T03:23:59;100637.13;;;14.66;100.00
54262;BME280;40174;52.364;6.452;2023-07-30T03:26:26;100633.09;;;14.62;100.00
54262;BME280;40174;52.364;6.452;2023-07-30T03:28:53;100634.09;;;14.61;100.00
54262;BME280;40174;52.364;6.452;2023-07-30T03:31:19;100633.00;;;14.53;100.00
54262;BME280;40174;52.364;6.452;2023-07-30T03:33:46;100626.00;;;14.52;100.00
54262;BME280;40174;52.364;6.452;2023-07-30T03:36:13;100620.53;;;14.54;100.00
54262;BME280;40174;52.364;6.452;2023-07-30T03:38:40;100625.56;;;14.57;100.00
54262;BME280;40174;52.364;6.452;2023-07-30T03:41:08;100623.91;;;14.56;100.00
54262;BME280;40174;52.364;6.452;2023-07-30T03:43:36;100629.91;;;14.58;100.00
54262;BME280;40174;52.364;6.452;2023-07-30T03:46:02;100623.09;;;14.55;100.00
54262;BME280;40174;52.364;6.452;2023-07-30T03:48:30;100626.72;;;14.54;100.00
54262;BME280;40174;52.364;6.452;2023-07-30T03:50:57;100626.44;;;14.58;100.00
54262;BME280;40174;52.364;6.452;2023-07-30T03:53:23;100627.00;;;14.51;100.00
54262;BME280;40174;52.364;6.452;2023-07-30T03:55:50;100628.97;;;14.49;100.00
54262;BME280;40174;52.364;6.452;2023-07-30T03:58:18;100621.00;;;14.49;100.00
54262;BME280;40174;52.364;6.452;2023-07-30T04:00:45;100622.97;;;14.47;100.00
54262;BME280;40174;52.364;6.452;2023-07-30T04:03:11;100627.63;;;14.45;100.00
54262;BME280;40174;52.364;6.452;2023-07-30T04:05:38;100628.44;;;14.46;100.00
54262;BME280;40174;52.364;6.452;2023-07-30T04:08:05;100626.78;;;14.45;100.00
54262;BME280;40174;52.364;6.452;2023-07-30T04:10:32;100623.59;;;14.41;100.00
54262;BME280;40174;52.364;6.452;2023-07-30T04:12:59;100624.88;;;14.37;100.00
54262;BME280;40174;52.364;6.452;2023-07-30T04:15:29;100627.38;;;14.39;100.00
54262;BME280;40174;52.364;6.452;2023-07-30T04:17:56;100631.88;;;14.38;100.00
54262;BME280;40174;52.364;6.452;2023-07-30T04:20:23;100636.06;;;14.41;100.00
54262;BME280;40174;52.364;6.452;2023-07-30T04:22:50;100635.59;;;14.45;100.00
54262;BME280;40174;52.364;6.452;2023-07-30T04:25:17;100637.09;;;14.48;100.00
54262;BME280;40174;52.364;6.452;2023-07-30T04:27:44;100626.94;;;14.43;100.00
54262;BME280;40174;52.364;6.452;2023-07-30T04:30:11;100625.28;;;14.42;100.00
54262;BME280;40174;52.364;6.452;2023-07-30T04:32:40;100638.25;;;14.45;100.00
54262;BME280;40174;52.364;6.452;2023-07-30T04:35:07;100636.28;;;14.47;100.00
54262;BME280;40174;52.364;6.452;2023-07-30T04:37:34;100641.59;;;14.47;100.00
54262;BME280;40174;52.364;6.452;2023-07-30T04:40:01;100640.44;;;14.50;100.00
54262;BME280;40174;52.364;6.452;2023-07-30T04:42:30;100639.47;;;14.51;100.00
54262;BME280;40174;52.364;6.452;2023-07-30T04:44:56;100638.19;;;14.55;100.00
54262;BME280;40174;52.364;6.452;2023-07-30T04:47:23;100647.13;;;14.54;100.00
54262;BME280;40174;52.364;6.452;2023-07-30T04:49:51;100653.31;;;14.54;100.00
54262;BME280;40174;52.364;6.452;2023-07-30T04:52:18;100652.16;;;14.57;100.00
54262;BME280;40174;52.364;6.452;2023-07-30T04:54:45;100650.88;;;14.61;100.00
54262;BME280;40174;52.364;6.452;2023-07-30T04:57:11;100662.06;;;14.65;100.00
54262;BME280;40174;52.364;6.452;2023-07-30T04:59:38;100658.56;;;14.64;100.00
54262;BME280;40174;52.364;6.452;2023-07-30T05:02:05;100662.06;;;14.65;100.00
54262;BME280;40174;52.364;6.452;2023-07-30T05:04:32;100664.56;;;14.66;100.00
54262;BME280;40174;52.364;6.452;2023-07-30T05:07:00;100658.94;;;14.69;100.00
54262;BME280;40174;52.364;6.452;2023-07-30T05:09:27;100662.31;;;14.80;100.00
54262;BME280;40174;52.364;6.452;2023-07-30T05:11:53;100670.31;;;14.80;100.00
54262;BME280;40174;52.364;6.452;2023-07-30T05:14:20;100665.84;;;14.80;100.00
54262;BME280;40174;52.364;6.452;2023-07-30T05:16:47;100670.84;;;14.83;100.00
54262;BME280;40174;52.364;6.452;2023-07-30T05:19:13;100667.84;;;14.86;100.00
54262;BME280;40174;52.364;6.452;2023-07-30T05:21:40;100673.41;;;14.93;100.00
54262;BME280;40174;52.364;6.452;2023-07-30T05:24:08;100675.22;;;14.92;100.00
54262;BME280;40174;52.364;6.452;2023-07-30T05:26:35;100674.47;;;15.00;100.00
54262;BME280;40174;52.364;6.452;2023-07-30T05:29:01;100669.97;;;15.01;100.00
54262;BME280;40174;52.364;6.452;2023-07-30T05:31:28;100665.47;;;15.01;100.00
54262;BME280;40174;52.364;6.452;2023-07-30T05:33:55;100675.81;;;15.04;100.00
54262;BME280;40174;52.364;6.452;2023-07-30T05:36:21;100669.03;;;15.10;100.00
54262;BME280;40174;52.364;6.452;2023-07-30T05:38:48;100668.56;;;15.14;100.00
54262;BME280;40174;52.364;6.452;2023-07-30T05:41:16;100674.56;;;15.16;100.00
54262;BME280;40174;52.364;6.452;2023-07-30T05:43:43;100671.59;;;15.20;100.00
54262;BME280;40174;52.364;6.452;2023-07-30T05:46:09;100680.78;;;15.25;100.00
54262;BME280;40174;52.364;6.452;2023-07-30T05:48:36;100681.13;;;15.30;100.00
54262;BME280;40174;52.364;6.452;2023-07-30T05:51:03;100689.19;;;15.38;100.00
54262;BME280;40174;52.364;6.452;2023-07-30T05:53:29;100682.69;;;15.41;100.00
54262;BME280;40174;52.364;6.452;2023-07-30T05:55:56;100678.22;;;15.42;100.00
54262;BME280;40174;52.364;6.452;2023-07-30T05:58:24;100686.72;;;15.45;100.00
54262;BME280;40174;52.364;6.452;2023-07-30T06:00:51;100685.09;;;15.52;100.00
54262;BME280;40174;52.364;6.452;2023-07-30T06:03:18;100686.28;;;15.58;100.00
54262;BME280;40174;52.364;6.452;2023-07-30T06:05:44;100693.28;;;15.59;100.00
54262;BME280;40174;52.364;6.452;2023-07-30T06:08:11;100697.59;;;15.60;100.00
54262;BME280;40174;52.364;6.452;2023-07-30T06:10:38;100693.34;;;15.67;100.00
54262;BME280;40174;52.364;6.452;2023-07-30T06:13:06;100695.22;;;15.75;100.00
54262;BME280;40174;52.364;6.452;2023-07-30T06:15:34;100687.41;;;15.82;100.00
54262;BME280;40174;52.364;6.452;2023-07-30T06:18:00;100691.78;;;15.91;100.00
54262;BME280;40174;52.364;6.452;2023-07-30T06:20:28;100696.63;;;15.95;100.00
54262;BME280;40174;52.364;6.452;2023-07-30T06:22:54;100697.97;;;15.99;100.00
54262;BME280;40174;52.364;6.452;2023-07-30T06:25:21;100689.50;;;16.04;100.00
54262;BME280;40174;52.364;6.452;2023-07-30T06:27:48;100685.84;;;16.13;100.00
54262;BME280;40174;52.364;6.452;2023-07-30T06:30:14;100685.16;;;16.11;100.00
54262;BME280;40174;52.364;6.452;2023-07-30T06:32:42;100685.03;;;16.21;100.00
54262;BME280;40174;52.364;6.452;2023-07-30T06:35:09;100699.22;;;16.30;100.00
54262;BME280;40174;52.364;6.452;2023-07-30T06:37:36;100685.22;;;16.36;100.00
54262;BME280;40174;52.364;6.452;2023-07-30T06:40:03;100692.91;;;16.39;100.00
54262;BME280;40174;52.364;6.452;2023-07-30T06:42:31;100685.41;;;16.42;100.00
54262;BME280;40174;52.364;6.452;2023-07-30T06:44:58;100699.94;;;16.48;100.00
54262;BME280;40174;52.364;6.452;2023-07-30T06:47:25;100693.09;;;16.54;100.00
54262;BME280;40174;52.364;6.452;2023-07-30T06:49:53;100688.94;;;16.59;100.00
54262;BME280;40174;52.364;6.452;2023-07-30T06:52:19;100695.94;;;16.60;100.00
54262;BME280;40174;52.364;6.452;2023-07-30T06:54:46;100698.09;;;16.65;100.00
54262;BME280;40174;52.364;6.452;2023-07-30T06:57:13;100700.78;;;16.73;100.00
54262;BME280;40174;52.364;6.452;2023-07-30T06:59:40;100691.09;;;16.72;100.00
54262;BME280;40174;52.364;6.452;2023-07-30T07:02:06;100693.63;;;16.82;100.00
54262;BME280;40174;52.364;6.452;2023-07-30T07:04:33;100698.94;;;16.90;100.00
54262;BME280;40174;52.364;6.452;2023-07-30T07:07:01;100699.97;;;16.97;100.00
54262;BME280;40174;52.364;6.452;2023-07-30T07:09:29;100696.13;;;17.00;100.00
54262;BME280;40174;52.364;6.452;2023-07-30T07:11:55;100703.28;;;17.08;100.00
54262;BME280;40174;52.364;6.452;2023-07-30T07:14:22;100700.41;;;17.17;100.00
54262;BME280;40174;52.364;6.452;2023-07-30T07:16:49;100709.97;;;17.20;100.00
54262;BME280;40174;52.364;6.452;2023-07-30T07:19:15;100700.94;;;17.29;100.00
54262;BME280;40174;52.364;6.452;2023-07-30T07:21:42;100691.72;;;17.32;100.00
54262;BME280;40174;52.364;6.452;2023-07-30T07:24:10;100711.09;;;17.34;100.00
54262;BME280;40174;52.364;6.452;2023-07-30T07:26:37;100708.91;;;17.37;100.00
54262;BME280;40174;52.364;6.452;2023-07-30T07:29:03;100712.25;;;17.39;100.00
54262;BME280;40174;52.364;6.452;2023-07-30T07:31:30;100700.72;;;17.39;100.00
54262;BME280;40174;52.364;6.452;2023-07-30T07:33:57;100721.28;;;17.38;100.00
54262;BME280;40174;52.364;6.452;2023-07-30T07:36:23;100726.78;;;17.37;100.00
54262;BME280;40174;52.364;6.452;2023-07-30T07:38:50;100720.44;;;17.38;100.00
54262;BME280;40174;52.364;6.452;2023-07-30T07:41:18;100717.06;;;17.44;100.00
54262;BME280;40174;52.364;6.452;2023-07-30T07:43:46;100716.91;;;17.45;100.00
54262;BME280;40174;52.364;6.452;2023-07-30T07:46:13;100719.56;;;17.54;100.00
54262;BME280;40174;52.364;6.452;2023-07-30T07:48:40;100719.72;;;17.52;100.00
54262;BME280;40174;52.364;6.452;2023-07-30T07:51:08;100718.91;;;17.52;100.00
54262;BME280;40174;52.364;6.452;2023-07-30T07:53:34;100723.59;;;17.50;100.00
54262;BME280;40174;52.364;6.452;2023-07-30T07:56:01;100722.91;;;17.48;100.00
54262;BME280;40174;52.364;6.452;2023-07-30T07:58:30;100730.91;;;17.56;100.00
54262;BME280;40174;52.364;6.452;2023-07-30T08:00:58;100721.22;;;17.55;100.00
54262;BME280;40174;52.364;6.452;2023-07-30T08:03:25;100725.72;;;17.62;100.00
54262;BME280;40174;52.364;6.452;2023-07-30T08:05:52;100734.06;;;17.59;100.00
54262;BME280;40174;52.364;6.452;2023-07-30T08:08:19;100724.22;;;17.60;100.00
54262;BME280;40174;52.364;6.452;2023-07-30T08:10:45;100742.75;;;17.61;100.00
54262;BME280;40174;52.364;6.452;2023-07-30T08:13:13;100739.41;;;17.67;100.00
54262;BME280;40174;52.364;6.452;2023-07-30T08:15:41;100730.34;;;17.77;100.00
54262;BME280;40174;52.364;6.452;2023-07-30T08:18:08;100722.47;;;17.92;100.00
54262;BME280;40174;52.364;6.452;2023-07-30T08:20:36;100723.91;;;18.02;100.00
54262;BME280;40174;52.364;6.452;2023-07-30T08:23:03;100708.88;;;18.01;100.00
54262;BME280;40174;52.364;6.452;2023-07-30T08:25:29;100710.91;;;17.99;100.00
54262;BME280;40174;52.364;6.452;2023-07-30T08:27:56;100713.03;;;18.04;100.00
54262;BME280;40174;52.364;6.452;2023-07-30T08:30:23;100718.41;;;18.04;100.00
54262;BME280;40174;52.364;6.452;2023-07-30T08:32:51;100719.50;;;18.18;100.00
54262;BME280;40174;52.364;6.452;2023-07-30T08:35:17;100718.84;;;18.16;100.00
54262;BME280;40174;52.364;6.452;2023-07-30T08:37:44;100718.50;;;18.19;100.00
54262;BME280;40174;52.364;6.452;2023-07-30T08:40:11;100719.97;;;18.21;100.00
54262;BME280;40174;52.364;6.452;2023-07-30T08:42:38;100715.00;;;18.18;100.00
54262;BME280;40174;52.364;6.452;2023-07-30T08:45:06;100715.09;;;18.25;100.00
54262;BME280;40174;52.364;6.452;2023-07-30T08:47:33;100713.09;;;18.27;100.00
54262;BME280;40174;52.364;6.452;2023-07-30T08:50:01;100707.53;;;18.37;100.00
54262;BME280;40174;52.364;6.452;2023-07-30T08:52:29;100714.34;;;18.39;100.00
54262;BME280;40174;52.364;6.452;2023-07-30T08:54:56;100710.19;;;18.37;100.00
54262;BME280;40174;52.364;6.452;2023-07-30T08:57:26;100720.53;;;18.40;100.00
54262;BME280;40174;52.364;6.452;2023-07-30T09:00:00;100716.88;;;18.41;100.00
54262;BME280;40174;52.364;6.452;2023-07-30T09:02:31;100714.00;;;18.42;100.00
54262;BME280;40174;52.364;6.452;2023-07-30T09:05:01;100720.31;;;18.73;100.00
54262;BME280;40174;52.364;6.452;2023-07-30T09:07:29;100718.44;;;18.81;100.00
54262;BME280;40174;52.364;6.452;2023-07-30T09:09:55;100716.72;;;18.88;100.00
54262;BME280;40174;52.364;6.452;2023-07-30T09:12:26;100715.13;;;18.79;100.00
54262;BME280;40174;52.364;6.452;2023-07-30T09:14:52;100725.81;;;18.79;100.00
54262;BME280;40174;52.364;6.452;2023-07-30T09:17:19;100719.84;;;18.69;100.00
54262;BME280;40174;52.364;6.452;2023-07-30T09:19:46;100732.75;;;18.65;100.00
54262;BME280;40174;52.364;6.452;2023-07-30T09:22:24;100726.63;;;18.57;100.00
54262;BME280;40174;52.364;6.452;2023-07-30T09:24:51;100719.13;;;18.52;100.00
54262;BME280;40174;52.364;6.452;2023-07-30T09:27:20;100730.25;;;18.41;100.00
54262;BME280;40174;52.364;6.452;2023-07-30T09:29:51;100730.25;;;18.41;100.00
54262;BME280;40174;52.364;6.452;2023-07-30T09:32:18;100738.28;;;18.41;100.00
54262;BME280;40174;52.364;6.452;2023-07-30T09:34:45;100744.31;;;18.35;100.00
54262;BME280;40174;52.364;6.452;2023-07-30T09:37:13;100736.81;;;18.30;100.00
54262;BME280;40174;52.364;6.452;2023-07-30T09:39:41;100734.31;;;18.28;100.00
54262;BME280;40174;52.364;6.452;2023-07-30T09:42:08;100736.03;;;18.21;100.00
54262;BME280;40174;52.364;6.452;2023-07-30T09:44:37;100729.88;;;18.13;100.00
54262;BME280;40174;52.364;6.452;2023-07-30T09:47:04;100747.44;;;18.07;100.00
54262;BME280;40174;52.364;6.452;2023-07-30T09:49:31;100749.03;;;17.93;100.00
54262;BME280;40174;52.364;6.452;2023-07-30T09:51:58;100750.06;;;17.84;100.00
54262;BME280;40174;52.364;6.452;2023-07-30T09:54:25;100755.91;;;17.71;100.00
54262;BME280;40174;52.364;6.452;2023-07-30T09:56:54;100751.06;;;17.66;100.00
54262;BME280;40174;52.364;6.452;2023-07-30T09:59:21;100748.59;;;17.65;100.00
54262;BME280;40174;52.364;6.452;2023-07-30T10:01:48;100752.78;;;17.59;100.00
54262;BME280;40174;52.364;6.452;2023-07-30T10:04:19;100744.75;;;17.59;100.00
54262;BME280;40174;52.364;6.452;2023-07-30T10:06:49;100765.81;;;17.54;100.00
54262;BME280;40174;52.364;6.452;2023-07-30T10:09:17;100750.31;;;17.50;100.00
54262;BME280;40174;52.364;6.452;2023-07-30T10:11:47;100756.16;;;17.45;100.00
54262;BME280;40174;52.364;6.452;2023-07-30T10:14:17;100756.31;;;17.43;100.00
54262;BME280;40174;52.364;6.452;2023-07-30T10:16:55;100757.50;;;17.49;100.00
54262;BME280;40174;52.364;6.452;2023-07-30T10:19:23;100765.97;;;17.53;100.00
54262;BME280;40174;52.364;6.452;2023-07-30T10:21:50;100767.97;;;17.59;100.00
54262;BME280;40174;52.364;6.452;2023-07-30T10:24:17;100765.59;;;17.80;100.00
54262;BME280;40174;52.364;6.452;2023-07-30T10:26:43;100761.06;;;17.81;100.00
54262;BME280;40174;52.364;6.452;2023-07-30T10:29:12;100761.41;;;17.78;100.00
54262;BME280;40174;52.364;6.452;2023-07-30T10:31:40;100744.53;;;17.77;100.00
54262;BME280;40174;52.364;6.452;2023-07-30T10:34:08;100761.41;;;17.78;100.00
54262;BME280;40174;52.364;6.452;2023-07-30T10:36:41;100768.78;;;17.84;100.00
54262;BME280;40174;52.364;6.452;2023-07-30T10:39:13;100775.09;;;17.91;100.00
54262;BME280;40174;52.364;6.452;2023-07-30T10:41:43;100776.25;;;17.97;100.00
54262;BME280;40174;52.364;6.452;2023-07-30T10:44:18;100773.66;;;18.20;100.00
54262;BME280;40174;52.364;6.452;2023-07-30T10:46:46;100762.34;;;18.41;100.00
54262;BME280;40174;52.364;6.452;2023-07-30T10:49:13;100764.00;;;18.42;100.00
54262;BME280;40174;52.364;6.452;2023-07-30T10:51:39;100771.22;;;18.41;100.00
54262;BME280;40174;52.364;6.452;2023-07-30T10:54:06;100777.88;;;18.45;100.00
54262;BME280;40174;52.364;6.452;2023-07-30T10:56:35;100766.44;;;18.52;100.00
54262;BME280;40174;52.364;6.452;2023-07-30T10:59:03;100769.38;;;18.65;100.00
54262;BME280;40174;52.364;6.452;2023-07-30T11:01:30;100770.81;;;18.76;100.00
54262;BME280;40174;52.364;6.452;2023-07-30T11:03:58;100775.97;;;19.08;100.00
54262;BME280;40174;52.364;6.452;2023-07-30T11:06:26;100777.66;;;19.24;100.00
54262;BME280;40174;52.364;6.452;2023-07-30T11:08:53;100766.66;;;19.19;100.00
54262;BME280;40174;52.364;6.452;2023-07-30T11:11:20;100767.38;;;19.13;100.00
54262;BME280;40174;52.364;6.452;2023-07-30T11:13:50;100777.13;;;19.29;100.00
54262;BME280;40174;52.364;6.452;2023-07-30T11:16:17;100785.81;;;19.31;100.00
54262;BME280;40174;52.364;6.452;2023-07-30T11:18:44;100782.50;;;19.44;100.00
54262;BME280;40174;52.364;6.452;2023-07-30T11:21:14;100791.38;;;19.44;100.00
54262;BME280;40174;52.364;6.452;2023-07-30T11:23:42;100804.19;;;19.34;100.00
54262;BME280;40174;52.364;6.452;2023-07-30T11:26:13;100793.84;;;19.08;100.00
54262;BME280;40174;52.364;6.452;2023-07-30T11:28:40;100795.13;;;18.97;100.00
54262;BME280;40174;52.364;6.452;2023-07-30T11:31:09;100787.81;;;18.91;100.00
54262;BME280;40174;52.364;6.452;2023-07-30T11:33:36;100783.16;;;18.85;100.00
54262;BME280;40174;52.364;6.452;2023-07-30T11:36:06;100793.22;;;18.83;100.00
54262;BME280;40174;52.364;6.452;2023-07-30T11:38:34;100785.84;;;18.85;100.00
54262;BME280;40174;52.364;6.452;2023-07-30T11:41:02;100800.00;;;18.94;100.00
54262;BME280;40174;52.364;6.452;2023-07-30T11:43:29;100798.28;;;19.01;100.00
54262;BME280;40174;52.364;6.452;2023-07-30T11:46:10;100790.66;;;19.13;100.00
54262;BME280;40174;52.364;6.452;2023-07-30T11:48:37;100792.38;;;19.28;100.00
54262;BME280;40174;52.364;6.452;2023-07-30T11:51:04;100797.00;;;19.87;100.00
54262;BME280;40174;52.364;6.452;2023-07-30T11:53:46;100786.78;;;20.27;100.00
54262;BME280;40174;52.364;6.452;2023-07-30T11:56:21;100791.72;;;20.60;100.00
54262;BME280;40174;52.364;6.452;2023-07-30T11:58:50;100790.34;;;20.86;94.57
54262;BME280;40174;52.364;6.452;2023-07-30T12:01:18;100800.94;;;20.94;97.28
54262;BME280;40174;52.364;6.452;2023-07-30T12:03:45;100812.59;;;20.80;92.49
54262;BME280;40174;52.364;6.452;2023-07-30T12:06:12;100810.59;;;20.67;87.10
54262;BME280;40174;52.364;6.452;2023-07-30T12:08:39;100819.44;;;20.46;85.27
54262;BME280;40174;52.364;6.452;2023-07-30T12:11:08;100817.22;;;20.34;83.48
54262;BME280;40174;52.364;6.452;2023-07-30T12:13:42;100819.91;;;20.34;85.94
54262;BME280;40174;52.364;6.452;2023-07-30T12:16:09;100814.38;;;20.36;83.91
54262;BME280;40174;52.364;6.452;2023-07-30T12:18:37;100827.09;;;20.49;84.02
54262;BME280;40174;52.364;6.452;2023-07-30T12:21:06;100816.03;;;20.73;86.39
54262;BME280;40174;52.364;6.452;2023-07-30T12:23:33;100818.63;;;21.03;84.74
54262;BME280;40174;52.364;6.452;2023-07-30T12:26:26;100817.78;;;21.46;83.18
54262;BME280;40174;52.364;6.452;2023-07-30T12:29:18;100828.06;;;21.64;81.12
54262;BME280;40174;52.364;6.452;2023-07-30T12:32:10;100831.63;;;21.71;78.55
54262;BME280;40174;52.364;6.452;2023-07-30T12:35:02;100840.13;;;21.74;76.03
54262;BME280;40174;52.364;6.452;2023-07-30T12:37:36;100830.53;;;21.65;75.85
54262;BME280;40174;52.364;6.452;2023-07-30T12:40:03;100837.06;;;21.77;76.60
54262;BME280;40174;52.364;6.452;2023-07-30T12:42:31;100831.03;;;21.75;75.44
54262;BME280;40174;52.364;6.452;2023-07-30T12:44:58;100830.53;;;21.93;77.13
54262;BME280;40174;52.364;6.452;2023-07-30T12:47:25;100837.78;;;21.93;75.54